createdAt,value
2022-09-12T00:01:22.033Z,96476.00
2022-09-12T00:03:53.013Z,96474.28
2022-09-12T00:06:29.430Z,96468.31
2022-09-12T00:09:00.186Z,96467.13
2022-09-12T00:11:28.161Z,96466.13
2022-09-12T00:14:01.245Z,96469.28
2022-09-12T00:16:30.273Z,96461.63
2022-09-12T00:18:57.393Z,96463.06
2022-09-12T00:21:24.864Z,96461.88
2022-09-12T00:23:52.210Z,96455.22
2022-09-12T00:26:20.792Z,96457.97
2022-09-12T00:28:49.371Z,96467.91
2022-09-12T00:31:19.450Z,96456.25
2022-09-12T00:33:47.333Z,96456.00
2022-09-12T00:36:18.043Z,96457.25
2022-09-12T00:38:46.224Z,96458.50
2022-09-12T00:41:25.759Z,96450.84
2022-09-12T00:44:02.376Z,96446.75
2022-09-12T00:46:33.128Z,96436.97
2022-09-12T00:49:27.113Z,96435.09
2022-09-12T00:52:06.708Z,96441.66
2022-09-12T00:54:43.380Z,96447.13
2022-09-12T00:57:14.403Z,96453.59
2022-09-12T00:59:50.715Z,96452.38
2022-09-12T01:02:18.383Z,96440.00
2022-09-12T01:04:48.103Z,96445.94
2022-09-12T01:07:15.714Z,96442.25
2022-09-12T01:09:45.564Z,96435.59
2022-09-12T01:12:16.354Z,96433.25
2022-09-12T01:14:43.966Z,96424.91
2022-09-12T01:17:15.608Z,96429.47
2022-09-12T01:19:57.634Z,96423.63
2022-09-12T01:22:49.267Z,96430.88
2022-09-12T01:25:48.595Z,96425.94
2022-09-12T01:28:54.541Z,96422.97
2022-09-12T01:31:47.736Z,96420.50
2022-09-12T01:34:21.810Z,96418.78
2022-09-12T01:37:10.943Z,96414.31
2022-09-12T01:40:07.737Z,96420.78
2022-09-12T01:43:03.726Z,96416.31
2022-09-12T01:45:39.478Z,96419.75
2022-09-12T01:48:13.784Z,96415.28
2022-09-12T01:50:47.697Z,96415.66
2022-09-12T01:53:22.408Z,96420.47
2022-09-12T01:55:57.553Z,96428.44
2022-09-12T01:58:34.862Z,96417.31
2022-09-12T02:01:16.804Z,96420.03
2022-09-12T02:04:31.052Z,96412.34
2022-09-12T02:07:15.383Z,96407.94
2022-09-12T02:10:15.464Z,96403.97
2022-09-12T02:12:50.436Z,96401.25
2022-09-12T02:15:21.158Z,96401.94
2022-09-12T02:17:52.081Z,96394.09
2022-09-12T02:20:46.880Z,96386.66
2022-09-12T02:23:24.045Z,96388.56
2022-09-12T02:25:55.227Z,96393.56
2022-09-12T02:28:28.581Z,96393.31
2022-09-12T02:31:20.071Z,96395.31
2022-09-12T02:34:02.333Z,96389.38
2022-09-12T02:36:52.173Z,96395.56
2022-09-12T02:39:21.996Z,96396.34
2022-09-12T02:41:54.034Z,96393.88
2022-09-12T02:44:23.004Z,96394.38
2022-09-12T02:47:16.037Z,96399.06
2022-09-12T02:49:43.693Z,96391.94
2022-09-12T02:52:10.743Z,96384.59
2022-09-12T02:54:38.512Z,96386.38
2022-09-12T02:57:22.628Z,96379.72
2022-09-12T02:59:57.504Z,96387.41
2022-09-12T03:03:03.915Z,96380.25
2022-09-12T03:05:49.584Z,96382.72
2022-09-12T03:08:33.134Z,96381.50
2022-09-12T03:11:18.383Z,96374.06
2022-09-12T03:14:08.884Z,96368.91
2022-09-12T03:16:41.789Z,96374.09
2022-09-12T03:19:15.080Z,96386.84
2022-09-12T03:22:09.533Z,96370.28
2022-09-12T03:24:47.491Z,96356.13
2022-09-12T03:27:29.864Z,96360.66
2022-09-12T03:29:58.090Z,96367.88
2022-09-12T03:33:01.074Z,96370.63
2022-09-12T03:35:28.203Z,96370.63
2022-09-12T03:37:55.262Z,96374.13
2022-09-12T03:40:22.392Z,96377.34
2022-09-12T03:42:49.884Z,96372.16
2022-09-12T03:45:21.596Z,96371.16
2022-09-12T03:47:49.391Z,96367.94
2022-09-12T03:50:16.507Z,96365.97
2022-09-12T03:52:46.454Z,96373.34
2022-09-12T03:55:13.528Z,96364.44
2022-09-12T03:57:41.084Z,96364.56
2022-09-12T04:00:08.955Z,96361.22
2022-09-12T04:02:42.552Z,96366.94
2022-09-12T04:05:09.666Z,96372.41
2022-09-12T04:07:36.658Z,96370.19
2022-09-12T04:10:04.141Z,96373.16
2022-09-12T04:12:32.407Z,96374.41
2022-09-12T04:14:59.646Z,96369.69
2022-09-12T04:17:26.890Z,96371.19
2022-09-12T04:19:54.110Z,96371.91
2022-09-12T04:22:21.299Z,96367.47
2022-09-12T04:24:48.404Z,96375.25
2022-09-12T04:27:15.456Z,96359.44
2022-09-12T04:29:42.915Z,96361.16
2022-09-12T04:32:10.323Z,96365.19
2022-09-12T04:34:37.576Z,96365.22
2022-09-12T04:37:04.924Z,96358.53
2022-09-12T04:39:32.119Z,96365.75
2022-09-12T04:42:01.574Z,96355.09
2022-09-12T04:44:29.134Z,96356.84
2022-09-12T04:46:56.113Z,96358.56
2022-09-12T04:49:23.550Z,96354.88
2022-09-12T04:51:53.464Z,96359.56
2022-09-12T04:54:21.151Z,96366.38
2022-09-12T04:56:50.379Z,96358.69
2022-09-12T04:59:21.768Z,96352.56
2022-09-12T05:01:49.105Z,96349.38
2022-09-12T05:04:16.349Z,96346.19
2022-09-12T05:06:44.157Z,96342.97
2022-09-12T05:09:12.828Z,96347.69
2022-09-12T05:14:41.329Z,96348.69
2022-09-12T05:17:08.755Z,96353.41
2022-09-12T05:19:37.210Z,96349.19
2022-09-12T05:22:07.711Z,96352.91
2022-09-12T05:24:35.431Z,96348.22
2022-09-12T05:27:04.942Z,96350.94
2022-09-12T05:29:32.518Z,96358.09
2022-09-12T05:31:59.733Z,96362.44
2022-09-12T05:34:28.145Z,96356.59
2022-09-12T05:36:55.391Z,96348.56
2022-09-12T05:39:22.566Z,96360.00
2022-09-12T05:41:49.959Z,96367.44
2022-09-12T05:44:18.261Z,96365.19
2022-09-12T05:46:48.809Z,96370.38
2022-09-12T05:49:16.135Z,96368.91
2022-09-12T05:51:46.060Z,96373.31
2022-09-12T05:54:15.983Z,96373.72
2022-09-12T05:56:44.302Z,96358.56
2022-09-12T05:59:13.357Z,96351.53
2022-09-12T06:01:41.071Z,96363.97
2022-09-12T06:04:09.203Z,96365.47
2022-09-12T06:06:45.354Z,96369.16
2022-09-12T06:09:14.791Z,96371.63
2022-09-12T06:11:42.697Z,96370.13
2022-09-12T06:14:12.954Z,96368.38
2022-09-12T06:16:40.808Z,96368.78
2022-09-12T06:19:15.249Z,96362.84
2022-09-12T06:21:42.375Z,96375.44
2022-09-12T06:24:10.112Z,96370.47
2022-09-12T06:26:37.700Z,96357.06
2022-09-12T06:29:05.206Z,96363.25
2022-09-12T06:31:35.266Z,96362.06
2022-09-12T06:34:05.111Z,96368.25
2022-09-12T06:36:35.154Z,96369.97
2022-09-12T06:39:09.103Z,96373.91
2022-09-12T06:41:38.456Z,96376.84
2022-09-12T06:44:13.170Z,96372.00
2022-09-12T06:46:40.223Z,96372.13
2022-09-12T06:49:08.299Z,96369.03
2022-09-12T06:51:38.590Z,96357.53
2022-09-12T06:54:06.962Z,96365.28
2022-09-12T06:56:34.469Z,96360.78
2022-09-12T06:59:01.904Z,96355.28
2022-09-12T07:01:33.363Z,96356.91
2022-09-12T07:04:03.269Z,96357.91
2022-09-12T07:06:35.192Z,96347.88
2022-09-12T07:09:10.886Z,96345.97
2022-09-12T07:11:40.074Z,96350.00
2022-09-12T07:14:09.709Z,96351.72
2022-09-12T07:16:37.545Z,96348.97
2022-09-12T07:19:06.667Z,96354.69
2022-09-12T07:21:36.695Z,96349.44
2022-09-12T07:24:04.095Z,96354.38
2022-09-12T07:26:31.514Z,96346.09
2022-09-12T07:29:25.199Z,96344.66
2022-09-12T07:31:47.308Z,96353.75
2022-09-12T07:34:14.537Z,96352.13
2022-09-12T07:36:41.719Z,96354.88
2022-09-12T07:39:10.857Z,96360.16
2022-09-12T07:41:38.288Z,96364.16
2022-09-12T07:44:08.608Z,96356.91
2022-09-12T07:46:35.886Z,96361.13
2022-09-12T07:49:03.842Z,96358.50
2022-09-12T07:51:31.730Z,96360.53
2022-09-12T07:53:59.458Z,96361.84
2022-09-12T07:56:31.161Z,96366.19
2022-09-12T07:59:00.146Z,96359.25
2022-09-12T08:01:30.351Z,96367.16
2022-09-12T08:04:00.044Z,96364.28
2022-09-12T08:06:30.584Z,96374.88
2022-09-12T08:08:59.034Z,96363.81
2022-09-12T08:11:31.083Z,96362.63
2022-09-12T08:13:58.873Z,96365.50
2022-09-12T08:16:28.559Z,96376.38
2022-09-12T08:19:01.963Z,96374.69
2022-09-12T08:21:32.467Z,96384.47
2022-09-12T08:24:02.465Z,96385.91
2022-09-12T08:26:32.035Z,96379.97
2022-09-12T08:28:59.864Z,96380.72
2022-09-12T08:31:28.272Z,96390.53
2022-09-12T08:33:57.154Z,96391.72
2022-09-12T08:36:27.013Z,96390.84
2022-09-12T08:38:59.614Z,96393.28
2022-09-12T08:41:44.678Z,96384.31
2022-09-12T08:44:33.667Z,96382.19
2022-09-12T08:47:11.041Z,96383.75
2022-09-12T08:50:03.006Z,96385.94
2022-09-12T08:52:33.969Z,96384.66
2022-09-12T08:55:03.318Z,96377.78
2022-09-12T08:57:30.596Z,96388.44
2022-09-12T08:59:58.097Z,96382.94
2022-09-12T09:02:40.837Z,96380.75
2022-09-12T09:05:35.582Z,96388.88
2022-09-12T09:08:11.672Z,96387.94
2022-09-12T09:11:11.032Z,96385.06
2022-09-12T09:14:05.221Z,96379.16
2022-09-12T09:16:38.176Z,96389.63
2022-09-12T09:19:17.596Z,96388.81
2022-09-12T09:21:56.057Z,96383.03
2022-09-12T09:24:33.871Z,96392.44
2022-09-12T09:27:39.916Z,96383.59
2022-09-12T09:30:16.900Z,96380.09
2022-09-12T09:32:49.891Z,96377.16
2022-09-12T09:35:38.192Z,96378.47
2022-09-12T09:38:28.471Z,96381.19
2022-09-12T09:41:22.067Z,96381.81
2022-09-12T09:43:49.396Z,96374.72
2022-09-12T09:46:19.133Z,96379.75
2022-09-12T09:48:49.966Z,96370.69
2022-09-12T09:51:22.032Z,96369.97
2022-09-12T09:53:57.997Z,96376.84
2022-09-12T09:56:33.420Z,96366.81
2022-09-12T09:59:25.862Z,96374.34
2022-09-12T10:02:23.794Z,96357.84
2022-09-12T10:04:59.094Z,96360.16
2022-09-12T10:07:27.351Z,96360.72
2022-09-12T10:10:23.871Z,96348.72
2022-09-12T10:12:51.768Z,96350.97
2022-09-12T10:15:26.319Z,96342.41
2022-09-12T10:17:55.804Z,96344.94
2022-09-12T10:20:39.857Z,96337.44
2022-09-12T10:23:19.837Z,96344.13
2022-09-12T10:25:53.947Z,96344.59
2022-09-12T10:28:46.237Z,96357.28
2022-09-12T10:31:43.290Z,96345.88
2022-09-12T10:34:23.101Z,96342.16
2022-09-12T10:36:54.388Z,96332.13
2022-09-12T10:39:22.702Z,96332.84
2022-09-12T10:41:50.130Z,96328.59
2022-09-12T10:44:31.625Z,96323.56
2022-09-12T10:47:00.661Z,96328.81
2022-09-12T10:49:31.422Z,96323.09
2022-09-12T10:52:21.954Z,96326.59
2022-09-12T10:54:54.776Z,96338.00
2022-09-12T10:57:54.334Z,96330.19
2022-09-12T11:00:27.989Z,96325.81
2022-09-12T11:03:11.349Z,96322.00
2022-09-12T11:05:47.604Z,96326.25
2022-09-12T11:08:42.248Z,96320.50
2022-09-12T11:11:28.250Z,96305.25
2022-09-12T11:14:19.688Z,96301.75
2022-09-12T11:16:54.666Z,96297.69
2022-09-12T11:19:38.479Z,96311.78
2022-09-12T11:22:33.953Z,96308.59
2022-09-12T11:25:30.136Z,96310.94
2022-09-12T11:28:11.084Z,96307.44
2022-09-12T11:30:49.868Z,96303.69
2022-09-12T11:33:25.477Z,96295.13
2022-09-12T11:35:55.667Z,96300.41
2022-09-12T11:38:31.107Z,96299.22
2022-09-12T11:41:20.931Z,96291.75
2022-09-12T11:43:48.240Z,96292.94
2022-09-12T11:46:34.295Z,96292.19
2022-09-12T11:49:41.830Z,96289.50
2022-09-12T11:52:15.122Z,96287.00
2022-09-12T11:54:53.662Z,96289.72
2022-09-12T11:57:50.203Z,96281.47
2022-09-12T12:00:38.445Z,96291.53
2022-09-12T12:03:37.453Z,96281.13
2022-09-12T12:06:22.210Z,96285.13
2022-09-12T12:08:51.811Z,96277.66
2022-09-12T12:11:33.822Z,96274.53
2022-09-12T12:14:04.909Z,96276.16
2022-09-12T12:16:35.229Z,96280.13
2022-09-12T12:19:19.262Z,96261.03
2022-09-12T12:21:53.045Z,96263.88
2022-09-12T12:24:26.320Z,96267.47
2022-09-12T12:26:53.396Z,96270.53
2022-09-12T12:29:20.338Z,96273.38
2022-09-12T12:31:59.769Z,96264.03
2022-09-12T12:34:39.054Z,96258.47
2022-09-12T12:37:21.567Z,96260.88
2022-09-12T12:39:49.442Z,96250.88
2022-09-12T12:42:37.400Z,96255.66
2022-09-12T12:45:27.322Z,96250.03
2022-09-12T12:47:58.417Z,96246.97
2022-09-12T12:50:29.449Z,96252.41
2022-09-12T12:53:15.383Z,96249.47
2022-09-12T12:55:42.387Z,96240.13
2022-09-12T12:58:33.109Z,96240.38
2022-09-12T13:01:06.413Z,96238.03
2022-09-12T13:03:34.716Z,96233.66
2022-09-12T13:06:05.731Z,96228.69
2022-09-12T13:08:43.905Z,96223.13
2022-09-12T13:11:38.883Z,96232.47
2022-09-12T13:14:27.484Z,96220.13
2022-09-12T13:16:58.800Z,96218.94
2022-09-12T13:19:32.701Z,96226.09
2022-09-12T13:22:06.594Z,96212.00
2022-09-12T13:24:42.303Z,96208.94
2022-09-12T13:27:24.296Z,96214.34
2022-09-12T13:30:14.164Z,96213.31
2022-09-12T13:32:44.068Z,96202.41
2022-09-12T13:35:35.069Z,96203.28
2022-09-12T13:38:16.225Z,96211.84
2022-09-12T13:41:03.805Z,96206.34
2022-09-12T13:43:42.305Z,96195.16
2022-09-12T13:46:13.781Z,96201.09
2022-09-12T13:48:41.376Z,96203.88
2022-09-12T13:51:23.393Z,96193.28
2022-09-12T13:53:53.964Z,96192.47
2022-09-12T13:56:21.454Z,96197.63
2022-09-12T13:59:00.542Z,96196.06
2022-09-12T14:01:42.482Z,96184.50
2022-09-12T14:04:53.848Z,96190.19
2022-09-12T14:07:25.643Z,96177.47
2022-09-12T14:10:01.224Z,96180.78
2022-09-12T14:12:44.176Z,96183.78
2022-09-12T14:15:24.718Z,96177.56
2022-09-12T14:17:54.992Z,96165.63
2022-09-12T14:20:24.584Z,96173.06
2022-09-12T14:22:53.045Z,96178.16
2022-09-12T14:25:24.789Z,96170.47
2022-09-12T14:27:55.374Z,96172.81
2022-09-12T14:30:28.388Z,96169.34
2022-09-12T14:33:10.711Z,96157.53
2022-09-12T14:35:43.139Z,96141.47
2022-09-12T14:38:16.659Z,96150.03
2022-09-12T14:40:53.388Z,96147.41
2022-09-12T14:43:24.928Z,96147.53
2022-09-12T14:46:00.020Z,96136.44
2022-09-12T14:48:31.341Z,96137.72
2022-09-12T14:50:59.408Z,96134.22
2022-09-12T14:53:34.021Z,96125.97
2022-09-12T14:56:12.841Z,96132.84
2022-09-12T14:58:41.817Z,96133.09
2022-09-12T15:01:09.025Z,96128.75
2022-09-12T15:03:46.001Z,96124.66
2022-09-12T15:06:29.396Z,96130.22
2022-09-12T15:08:59.821Z,96128.41
2022-09-12T15:11:27.561Z,96140.13
2022-09-12T15:13:55.274Z,96138.56
2022-09-12T15:16:25.206Z,96136.25
2022-09-12T15:18:52.600Z,96141.25
2022-09-12T15:21:21.486Z,96133.72
2022-09-12T15:23:50.621Z,96138.81
2022-09-12T15:26:23.510Z,96135.28
2022-09-12T15:28:51.190Z,96128.47
2022-09-12T15:31:36.375Z,96124.13
2022-09-12T15:34:03.878Z,96130.06
2022-09-12T15:36:31.104Z,96123.41
2022-09-12T15:38:58.586Z,96124.75
2022-09-12T15:41:31.402Z,96116.63
2022-09-12T15:43:58.608Z,96115.09
2022-09-12T15:46:25.655Z,96117.41
2022-09-12T15:48:52.819Z,96121.69
2022-09-12T15:51:21.846Z,96118.63
2022-09-12T15:53:50.598Z,96112.63
2022-09-12T15:56:21.278Z,96115.41
2022-09-12T15:58:58.899Z,96111.53
2022-09-12T16:01:28.388Z,96112.97
2022-09-12T16:03:55.723Z,96104.25
2022-09-12T16:06:23.715Z,96110.63
2022-09-12T16:08:50.994Z,96110.56
2022-09-12T16:11:24.834Z,96106.94
2022-09-12T16:13:56.919Z,96096.47
2022-09-12T16:16:24.324Z,96094.44
2022-09-12T16:18:51.787Z,96095.63
2022-09-12T16:21:19.458Z,96097.47
2022-09-12T16:23:48.128Z,96095.84
2022-09-12T16:26:16.293Z,96097.78
2022-09-12T16:28:43.822Z,96097.75
2022-09-12T16:31:13.880Z,96089.94
2022-09-12T16:33:41.202Z,96095.88
2022-09-12T16:36:10.804Z,96091.66
2022-09-12T16:38:52.979Z,96100.69
2022-09-12T16:41:25.412Z,96093.44
2022-09-12T16:43:53.256Z,96091.75
2022-09-12T16:46:23.646Z,96082.56
2022-09-12T16:48:54.251Z,96081.59
2022-09-12T16:51:33.811Z,96081.06
2022-09-12T16:54:01.103Z,96082.72
2022-09-12T16:56:28.184Z,96079.16
2022-09-12T16:58:55.800Z,96066.47
2022-09-12T17:01:25.452Z,96075.97
2022-09-12T17:03:57.903Z,96070.66
2022-09-12T17:06:26.506Z,96069.38
2022-09-12T17:08:55.487Z,96071.44
2022-09-12T17:11:25.875Z,96075.13
2022-09-12T17:14:10.412Z,96076.66
2022-09-12T17:16:42.932Z,96085.84
2022-09-12T17:19:19.715Z,96083.19
2022-09-12T17:21:48.928Z,96080.25
2022-09-12T17:24:22.217Z,96077.91
2022-09-12T17:26:50.853Z,96079.63
2022-09-12T17:29:18.377Z,96078.56
2022-09-12T17:31:46.059Z,96075.41
2022-09-12T17:34:16.494Z,96087.13
2022-09-12T17:36:47.633Z,96085.53
2022-09-12T17:39:15.552Z,96082.94
2022-09-12T17:41:43.492Z,96087.47
2022-09-12T17:44:15.315Z,96080.88
2022-09-12T17:46:44.217Z,96076.97
2022-09-12T17:49:17.406Z,96081.41
2022-09-12T17:51:46.321Z,96080.59
2022-09-12T17:54:18.323Z,96079.00
2022-09-12T17:56:46.891Z,96083.47
2022-09-12T17:59:17.678Z,96090.06
2022-09-12T18:02:03.833Z,96090.03
2022-09-12T18:04:31.225Z,96089.97
2022-09-12T18:07:00.647Z,96086.41
2022-09-12T18:09:28.532Z,96079.63
2022-09-12T18:11:55.787Z,96069.13
2022-09-12T18:14:23.841Z,96075.31
2022-09-12T18:16:51.242Z,96079.25
2022-09-12T18:19:18.695Z,96081.47
2022-09-12T18:21:46.332Z,96082.00
2022-09-12T18:24:14.048Z,96075.88
2022-09-12T18:26:46.584Z,96078.19
2022-09-12T18:29:17.145Z,96083.69
2022-09-12T18:31:44.658Z,96077.19
2022-09-12T18:34:15.357Z,96084.44
2022-09-12T18:36:48.201Z,96080.84
2022-09-12T18:39:16.327Z,96078.56
2022-09-12T18:41:44.095Z,96082.47
2022-09-12T18:44:12.190Z,96082.78
2022-09-12T18:46:39.540Z,96077.59
2022-09-12T18:49:07.936Z,96086.66
2022-09-12T18:51:37.075Z,96087.63
2022-09-12T18:54:06.833Z,96079.69
2022-09-12T18:56:37.834Z,96077.03
2022-09-12T18:59:06.596Z,96086.88
2022-09-12T19:01:38.855Z,96082.75
2022-09-12T19:04:07.982Z,96085.56
2022-09-12T19:06:42.565Z,96094.06
2022-09-12T19:09:14.582Z,96089.69
2022-09-12T19:11:49.215Z,96091.69
2022-09-12T19:14:18.605Z,96084.03
2022-09-12T19:16:45.906Z,96082.88
2022-09-12T19:19:13.223Z,96082.97
2022-09-12T19:21:42.268Z,96070.75
2022-09-12T19:24:10.798Z,96063.97
2022-09-12T19:26:39.428Z,96056.97
2022-09-12T19:29:07.562Z,96061.50
2022-09-12T19:31:35.160Z,96061.34
2022-09-12T19:34:06.619Z,96047.63
2022-09-12T19:36:50.921Z,96054.25
2022-09-12T19:39:19.987Z,96050.78
2022-09-12T19:41:48.557Z,96048.41
2022-09-12T19:44:16.023Z,96064.53
2022-09-12T19:46:43.581Z,96058.66
2022-09-12T19:49:12.563Z,96055.50
2022-09-12T19:51:40.334Z,96047.78
2022-09-12T19:54:08.043Z,96040.97
2022-09-12T19:56:35.356Z,96040.97
2022-09-12T19:59:02.554Z,96045.03
2022-09-12T20:01:30.005Z,96041.97
2022-09-12T20:03:58.794Z,96032.63
2022-09-12T20:06:27.638Z,96030.97
2022-09-12T20:08:55.772Z,96035.09
2022-09-12T20:11:27.225Z,96030.28
2022-09-12T20:13:54.648Z,96023.66
2022-09-12T20:16:28.616Z,96027.44
2022-09-12T20:18:58.877Z,96037.91
2022-09-12T20:21:32.108Z,96031.25
2022-09-12T20:24:14.674Z,96031.25
2022-09-12T20:26:42.400Z,96024.97
2022-09-12T20:29:10.699Z,96022.69
2022-09-12T20:31:39.860Z,96024.88
2022-09-12T20:34:08.002Z,96020.63
2022-09-12T20:36:35.204Z,96012.75
2022-09-12T20:39:02.925Z,96014.16
2022-09-12T20:41:33.214Z,96008.63
2022-09-12T20:44:00.586Z,96001.09
2022-09-12T20:46:28.669Z,95994.00
2022-09-12T20:48:56.385Z,95994.84
2022-09-12T20:51:26.824Z,95998.88
2022-09-12T20:53:55.444Z,95986.88
2022-09-12T20:56:24.169Z,95986.63
2022-09-12T20:58:51.859Z,95987.31
2022-09-12T21:01:20.198Z,95983.25
2022-09-12T21:03:48.414Z,95995.66
2022-09-12T21:06:19.994Z,95995.44
2022-09-12T21:08:48.919Z,95992.84
2022-09-12T21:11:18.034Z,95986.44
2022-09-12T21:13:47.189Z,95984.97
2022-09-12T21:16:17.942Z,95973.41
2022-09-12T21:18:45.344Z,95975.88
2022-09-12T21:21:15.246Z,95969.03
2022-09-12T21:23:42.602Z,95981.06
2022-09-12T21:26:10.407Z,95980.97
2022-09-12T21:28:40.474Z,95985.09
2022-09-12T21:31:07.797Z,95984.91
2022-09-12T21:33:35.473Z,95983.78
2022-09-12T21:36:04.981Z,95979.38
2022-09-12T21:38:33.043Z,95987.59
2022-09-12T21:41:08.910Z,95992.13
2022-09-12T21:43:36.904Z,96001.28
2022-09-12T21:46:05.521Z,96005.00
2022-09-12T21:48:35.281Z,95993.38
2022-09-12T21:51:02.900Z,95998.94
2022-09-12T21:53:30.353Z,96006.59
2022-09-12T21:56:02.247Z,96006.41
2022-09-12T21:58:29.302Z,96008.19
2022-09-12T22:00:56.424Z,96005.78
2022-09-12T22:03:26.684Z,95999.34
2022-09-12T22:05:58.659Z,96004.06
2022-09-12T22:08:26.281Z,95997.84
2022-09-12T22:10:53.685Z,95994.03
2022-09-12T22:13:20.936Z,95987.78
2022-09-12T22:15:53.207Z,95987.22
2022-09-12T22:18:20.476Z,95988.06
2022-09-12T22:20:48.104Z,95984.38
2022-09-12T22:23:34.098Z,95962.66
2022-09-12T22:26:02.991Z,95963.25
2022-09-12T22:28:32.291Z,95962.16
2022-09-12T22:30:59.888Z,95957.19
2022-09-12T22:33:27.659Z,95963.66
2022-09-12T22:35:54.899Z,95964.53
2022-09-12T22:38:22.623Z,95956.84
2022-09-12T22:40:50.176Z,95957.56
2022-09-12T22:43:19.217Z,95955.38
2022-09-12T22:45:46.535Z,95960.31
2022-09-12T22:48:13.814Z,95956.41
2022-09-12T22:50:41.796Z,95953.59
2022-09-12T22:53:09.366Z,95953.84
2022-09-12T22:55:36.547Z,95955.59
2022-09-12T22:58:04.146Z,95950.50
2022-09-12T23:00:31.408Z,95954.94
2022-09-12T23:02:58.540Z,95947.03
2022-09-12T23:05:26.206Z,95946.84
2022-09-12T23:07:53.270Z,95953.69
2022-09-12T23:10:20.435Z,95951.06
2022-09-12T23:12:47.502Z,95953.44
2022-09-12T23:15:15.486Z,95957.75
2022-09-12T23:17:42.505Z,95955.56
2022-09-12T23:20:10.156Z,95954.28
2022-09-12T23:22:37.562Z,95947.13
2022-09-12T23:25:05.591Z,95959.72
2022-09-12T23:27:32.599Z,95949.09
2022-09-12T23:29:59.767Z,95943.19
2022-09-12T23:32:27.003Z,95947.94
2022-09-12T23:34:54.380Z,95947.53
2022-09-12T23:37:21.866Z,95926.16
2022-09-12T23:39:49.878Z,95935.66
2022-09-12T23:42:17.388Z,95930.16
2022-09-12T23:44:47.124Z,95927.06
2022-09-12T23:47:14.200Z,95926.25
2022-09-12T23:49:41.579Z,95924.00
2022-09-12T23:52:08.702Z,95924.03
2022-09-12T23:54:37.333Z,95925.84
2022-09-12T23:57:04.480Z,95913.16
2022-09-12T23:59:31.673Z,95909.28
